Time;durP1;ratioP1;P1;durP2;ratioP2;P2;SDS_P1;SDS_P2;PMS_P1;PMS_P2;Temp;Humidity;BMP_temperature;BMP_pressure;BME280_temperature;BME280_humidity;BME280_pressure;Samples;Min_cycle;Max_cycle;Signal;HPM_P1;HPM_P2
2022/11/04 00:01:47;;;;;;;;;;;11.40;90.60;;;;;;4995179;28;1803;-69
2022/11/04 00:04:16;;;;;;;;;;;11.40;90.70;;;;;;4995581;28;1056;-69
2022/11/04 00:06:45;;;;;;;;;;;11.40;90.90;;;;;;4994996;28;1669;-71
2022/11/04 00:09:17;;;;;;;;;;;11.30;91.00;;;;;;4994781;28;1068;-68
2022/11/04 00:14:30;;;;;;;;;;;11.30;91.30;;;;;;4995809;28;1122;-67
2022/11/04 00:30:53;;;;;;;;;;;11.30;92.00;;;;;;4994809;28;1357;-68
2022/11/04 00:33:25;;;;;;;;;;;11.30;92.00;;;;;;4995189;28;1077;-69
2022/11/04 00:35:54;;;;;;;;;;;11.30;92.00;;;;;;4995272;28;1156;-69
2022/11/04 00:38:23;;;;;;;;;;;11.30;91.90;;;;;;4993690;28;1240;-69
2022/11/04 00:40:50;;;;;;;;;;;11.30;92.10;;;;;;4994299;28;1978;-68
2022/11/04 00:43:18;;;;;;;;;;;11.10;92.20;;;;;;4995176;28;1152;-69
2022/11/04 00:45:46;;;;;;;;;;;11.30;92.50;;;;;;4994443;28;1031;-69
2022/11/04 00:48:13;;;;;;;;;;;11.20;92.50;;;;;;4994634;28;1053;-69
2022/11/04 00:50:41;;;;;;;;;;;11.30;92.70;;;;;;4995100;28;1343;-69
2022/11/04 00:53:09;;;;;;;;;;;11.30;92.40;;;;;;4994450;28;1098;-68
2022/11/04 00:55:38;;;;;;;;;;;11.40;92.40;;;;;;4992653;28;1501;-69
2022/11/04 00:58:06;;;;;;;;;;;11.30;92.50;;;;;;4994654;28;1017;-70
2022/11/04 01:00:33;;;;;;;;;;;11.30;92.40;;;;;;4994286;28;1984;-69
2022/11/04 01:03:01;;;;;;;;;;;11.30;92.50;;;;;;4994967;28;1077;-69
2022/11/04 01:05:29;;;;;;;;;;;11.40;92.50;;;;;;4993727;28;1953;-69
2022/11/04 01:07:56;;;;;;;;;;;11.30;92.60;;;;;;5000381;28;1052;-70
2022/11/04 01:10:24;;;;;;;;;;;11.30;92.50;;;;;;4999909;28;1033;-69
2022/11/04 01:12:53;;;;;;;;;;;11.40;92.70;;;;;;4994696;28;1388;-69
2022/11/04 01:15:21;;;;;;;;;;;11.40;92.60;;;;;;4993695;28;1066;-69
2022/11/04 01:17:48;;;;;;;;;;;11.40;92.60;;;;;;4993726;28;1009;-68
2022/11/04 01:20:17;;;;;;;;;;;11.50;92.60;;;;;;4994192;28;1910;-68
2022/11/04 01:22:45;;;;;;;;;;;11.40;92.70;;;;;;4993880;28;1387;-70
2022/11/04 01:25:12;;;;;;;;;;;11.50;92.90;;;;;;4994231;28;1013;-69
2022/11/04 01:27:40;;;;;;;;;;;11.50;92.80;;;;;;4993720;28;1081;-69
2022/11/04 01:30:10;;;;;;;;;;;11.50;92.80;;;;;;4993779;28;1310;-69
2022/11/04 01:32:37;;;;;;;;;;;11.40;92.90;;;;;;4994131;28;1351;-69
2022/11/04 01:35:05;;;;;;;;;;;11.50;93.00;;;;;;4993122;28;1528;-69
2022/11/04 01:37:33;;;;;;;;;;;11.50;93.20;;;;;;4993645;28;1405;-70
2022/11/04 01:40:00;;;;;;;;;;;11.50;92.80;;;;;;4994187;28;1903;-70
2022/11/04 01:42:28;;;;;;;;;;;11.40;92.90;;;;;;4993783;28;1547;-69
2022/11/04 01:44:56;;;;;;;;;;;11.50;93.00;;;;;;4993136;28;2205;-70
2022/11/04 01:47:28;;;;;;;;;;;11.50;93.00;;;;;;4992993;28;2055;-69
2022/11/04 01:49:57;;;;;;;;;;;11.50;92.90;;;;;;4993956;28;1890;-69
2022/11/04 01:52:28;;;;;;;;;;;11.50;92.90;;;;;;4994407;28;2035;-67
2022/11/04 01:54:57;;;;;;;;;;;11.50;92.90;;;;;;4994631;28;1052;-68
2022/11/04 01:57:28;;;;;;;;;;;11.50;93.00;;;;;;4994093;28;1533;-68
2022/11/04 01:59:57;;;;;;;;;;;11.50;93.10;;;;;;4994557;28;1076;-68
2022/11/04 02:02:26;;;;;;;;;;;11.50;93.00;;;;;;4993322;28;1993;-68
2022/11/04 02:04:54;;;;;;;;;;;11.50;93.00;;;;;;4994230;28;1040;-67
2022/11/04 02:07:23;;;;;;;;;;;11.50;93.00;;;;;;4993822;28;767;-68
2022/11/04 02:09:50;;;;;;;;;;;11.50;93.00;;;;;;4993739;28;2065;-68
2022/11/04 02:18:12;;;;;;;;;;;11.50;93.20;;;;;;5837241;22;1867;-67
2022/11/04 02:20:50;;;;;;;;;;;11.40;93.30;;;;;;4999358;28;1919;-68
2022/11/04 02:23:36;;;;;;;;;;;11.50;93.50;;;;;;5000071;28;1190;-68
2022/11/04 02:26:22;;;;;;;;;;;11.40;93.50;;;;;;5000066;28;1115;-67
2022/11/04 02:29:17;;;;;;;;;;;11.50;93.50;;;;;;4997152;28;1081;-68
2022/11/04 02:31:51;;;;;;;;;;;11.50;93.50;;;;;;4953022;28;1341;-68
2022/11/04 02:34:21;;;;;;;;;;;11.50;93.90;;;;;;4999921;28;1168;-67
2022/11/04 02:36:51;;;;;;;;;;;11.50;94.00;;;;;;5005173;28;1152;-68
2022/11/04 02:39:23;;;;;;;;;;;11.50;93.90;;;;;;5000439;28;1057;-67
2022/11/04 02:41:53;;;;;;;;;;;11.40;94.30;;;;;;5001980;28;1906;-68
2022/11/04 02:44:22;;;;;;;;;;;11.40;94.50;;;;;;4999246;28;1060;-68
2022/11/04 02:46:53;;;;;;;;;;;11.50;94.50;;;;;;5009415;28;1095;-68
2022/11/04 02:49:23;;;;;;;;;;;11.50;94.60;;;;;;5007673;28;1007;-69
2022/11/04 02:51:52;;;;;;;;;;;11.40;94.50;;;;;;5005445;28;1323;-70
2022/11/04 02:54:23;;;;;;;;;;;11.50;94.80;;;;;;5006462;28;1050;-70
2022/11/04 02:56:51;;;;;;;;;;;11.60;94.80;;;;;;5006737;28;997;-68
2022/11/04 02:59:22;;;;;;;;;;;11.50;95.00;;;;;;5003123;28;1182;-69
2022/11/04 03:01:52;;;;;;;;;;;11.50;95.20;;;;;;5008389;28;2004;-68
2022/11/04 03:04:24;;;;;;;;;;;11.40;95.10;;;;;;5004034;28;1005;-69
2022/11/04 03:06:54;;;;;;;;;;;11.50;95.50;;;;;;5000514;28;1650;-69
2022/11/04 03:09:22;;;;;;;;;;;11.40;95.60;;;;;;5003944;28;1092;-68
2022/11/04 03:11:51;;;;;;;;;;;11.40;95.70;;;;;;5002106;28;1733;-69
2022/11/04 03:14:22;;;;;;;;;;;11.50;95.80;;;;;;5011150;28;1413;-69
2022/11/04 03:16:51;;;;;;;;;;;11.50;96.00;;;;;;5015616;28;1383;-68
2022/11/04 03:19:23;;;;;;;;;;;11.40;96.20;;;;;;5002805;28;1079;-69
2022/11/04 03:21:53;;;;;;;;;;;11.30;96.30;;;;;;5005045;28;1919;-69
2022/11/04 03:24:21;;;;;;;;;;;11.40;96.50;;;;;;5000074;28;1911;-69
2022/11/04 03:26:51;;;;;;;;;;;11.40;96.70;;;;;;5004479;28;1771;-69
2022/11/04 03:29:23;;;;;;;;;;;11.40;96.80;;;;;;5004340;28;1077;-70
2022/11/04 03:31:56;;;;;;;;;;;11.30;96.80;;;;;;5005514;28;1388;-68
2022/11/04 03:34:25;;;;;;;;;;;11.40;97.00;;;;;;5004383;28;1229;-69
2022/11/04 03:36:52;;;;;;;;;;;11.40;97.10;;;;;;5001270;28;1196;-68
2022/11/04 03:39:20;;;;;;;;;;;11.40;97.20;;;;;;5003933;28;1808;-69
2022/11/04 03:41:49;;;;;;;;;;;11.40;97.40;;;;;;5002927;28;1933;-70
2022/11/04 03:44:16;;;;;;;;;;;11.50;97.60;;;;;;5005657;28;1970;-70
2022/11/04 03:46:44;;;;;;;;;;;11.40;97.70;;;;;;5004961;28;2040;-67
2022/11/04 03:49:12;;;;;;;;;;;11.50;97.80;;;;;;5000177;28;1977;-74
2022/11/04 03:51:41;;;;;;;;;;;11.50;97.80;;;;;;5003300;28;1871;-69
2022/11/04 03:54:09;;;;;;;;;;;11.50;98.00;;;;;;5004762;28;1044;-73
2022/11/04 03:56:49;;;;;;;;;;;11.50;98.00;;;;;;5006962;28;1933;-74
2022/11/04 03:59:29;;;;;;;;;;;11.60;98.10;;;;;;5002581;28;1705;-73
2022/11/04 04:02:00;;;;;;;;;;;11.60;97.90;;;;;;5003137;28;1910;-74
2022/11/04 04:04:29;;;;;;;;;;;11.60;98.00;;;;;;5004619;28;997;-73
2022/11/04 04:07:01;;;;;;;;;;;11.60;97.90;;;;;;5002203;28;1017;-72
2022/11/04 04:09:32;;;;;;;;;;;11.70;98.00;;;;;;5002973;28;1565;-71
2022/11/04 04:12:03;;;;;;;;;;;11.70;98.00;;;;;;5005294;28;1453;-70
2022/11/04 04:14:42;;;;;;;;;;;11.70;98.20;;;;;;5005363;28;1100;-70
2022/11/04 04:17:13;;;;;;;;;;;11.70;98.40;;;;;;5002878;28;1926;-69
2022/11/04 04:19:42;;;;;;;;;;;11.70;98.50;;;;;;5000939;28;1846;-68
2022/11/04 04:22:13;;;;;;;;;;;11.70;98.60;;;;;;5004719;28;1985;-72
2022/11/04 04:27:32;;;;;;;;;;;11.70;98.60;;;;;;5003062;28;1819;-72
2022/11/04 04:30:03;;;;;;;;;;;11.80;98.60;;;;;;5004960;28;1034;-71
2022/11/04 04:32:33;;;;;;;;;;;11.80;98.50;;;;;;5003968;28;1348;-72
2022/11/04 04:37:48;;;;;;;;;;;11.80;98.20;;;;;;5003468;28;1488;-72
2022/11/04 04:45:49;;;;;;;;;;;11.90;97.60;;;;;;5004131;28;1152;-72
2022/11/04 04:48:17;;;;;;;;;;;11.90;97.60;;;;;;5003850;28;1025;-70
2022/11/04 04:50:45;;;;;;;;;;;11.90;97.40;;;;;;4997192;28;1372;-72
2022/11/04 04:53:14;;;;;;;;;;;11.90;96.90;;;;;;5007622;28;1376;-74
2022/11/04 04:55:42;;;;;;;;;;;11.90;96.10;;;;;;5004311;28;1069;-74
2022/11/04 04:58:10;;;;;;;;;;;11.90;95.70;;;;;;5003623;28;1515;-74
2022/11/04 05:00:37;;;;;;;;;;;12.00;95.50;;;;;;5002482;28;1283;-74
2022/11/04 05:03:05;;;;;;;;;;;11.90;94.50;;;;;;5001047;28;1899;-75
2022/11/04 05:05:33;;;;;;;;;;;12.00;93.90;;;;;;5000569;28;1184;-74
2022/11/04 05:08:03;;;;;;;;;;;12.00;93.40;;;;;;5001864;28;1878;-67
2022/11/04 05:10:33;;;;;;;;;;;12.00;93.70;;;;;;5003746;28;1985;-66
2022/11/04 05:15:46;;;;;;;;;;;12.10;94.00;;;;;;5006690;28;2001;-67
2022/11/04 05:18:14;;;;;;;;;;;12.20;93.60;;;;;;5002500;28;2099;-66
2022/11/04 05:20:41;;;;;;;;;;;12.20;93.00;;;;;;5004051;28;1357;-66
2022/11/04 05:23:11;;;;;;;;;;;12.20;92.60;;;;;;5009448;28;1986;-66
2022/11/04 05:25:40;;;;;;;;;;;12.20;92.80;;;;;;5002007;28;1954;-65
2022/11/04 05:28:08;;;;;;;;;;;12.30;92.40;;;;;;5005125;28;1978;-66
2022/11/04 05:30:36;;;;;;;;;;;12.30;92.10;;;;;;5006949;28;2112;-65
2022/11/04 05:33:04;;;;;;;;;;;12.30;92.30;;;;;;5009153;28;2222;-65
2022/11/04 05:35:32;;;;;;;;;;;12.30;91.80;;;;;;5012013;28;1897;-66
2022/11/04 05:37:59;;;;;;;;;;;12.20;91.70;;;;;;5009452;28;2159;-64
2022/11/04 05:40:27;;;;;;;;;;;12.20;92.70;;;;;;5010244;28;1662;-66
2022/11/04 05:42:58;;;;;;;;;;;12.30;91.70;;;;;;5014335;28;1998;-67
2022/11/04 05:45:26;;;;;;;;;;;12.40;91.90;;;;;;5010772;28;1042;-65
2022/11/04 05:47:57;;;;;;;;;;;12.30;92.20;;;;;;5008774;28;1830;-64
2022/11/04 05:50:24;;;;;;;;;;;12.30;91.70;;;;;;5010243;28;2068;-65
2022/11/04 05:52:52;;;;;;;;;;;12.30;91.80;;;;;;5007244;28;1299;-65
2022/11/04 05:55:20;;;;;;;;;;;12.20;91.80;;;;;;5000899;28;1962;-65
2022/11/04 05:57:47;;;;;;;;;;;12.30;91.60;;;;;;5004574;28;1041;-67
2022/11/04 06:00:20;;;;;;;;;;;12.30;92.00;;;;;;5000659;28;1329;-66
2022/11/04 06:02:47;;;;;;;;;;;12.20;91.60;;;;;;5002687;28;1992;-66
2022/11/04 06:05:15;;;;;;;;;;;12.00;91.60;;;;;;5002729;28;1925;-65
2022/11/04 06:07:43;;;;;;;;;;;12.00;91.80;;;;;;5000632;28;1938;-66
2022/11/04 06:10:11;;;;;;;;;;;12.00;91.70;;;;;;4999870;28;2079;-65
2022/11/04 06:12:38;;;;;;;;;;;12.10;92.10;;;;;;5003001;28;1958;-71
2022/11/04 06:15:06;;;;;;;;;;;12.10;91.80;;;;;;5004483;28;1002;-66
2022/11/04 06:17:36;;;;;;;;;;;12.10;91.70;;;;;;5002806;28;2298;-65
2022/11/04 06:20:05;;;;;;;;;;;12.20;91.40;;;;;;5002530;28;2239;-68
2022/11/04 06:22:33;;;;;;;;;;;12.20;91.60;;;;;;5003124;28;2068;-65
2022/11/04 06:25:00;;;;;;;;;;;12.10;91.60;;;;;;5000280;28;1010;-65
2022/11/04 06:27:28;;;;;;;;;;;11.90;92.10;;;;;;5000173;28;1065;-65
2022/11/04 06:29:55;;;;;;;;;;;11.90;92.00;;;;;;5000579;28;1542;-67
2022/11/04 06:32:23;;;;;;;;;;;11.90;91.70;;;;;;5002155;28;1295;-66
2022/11/04 06:34:52;;;;;;;;;;;12.00;91.80;;;;;;4994412;28;1422;-69
2022/11/04 06:37:20;;;;;;;;;;;12.00;91.50;;;;;;5001217;28;1464;-68
2022/11/04 06:39:47;;;;;;;;;;;12.10;91.70;;;;;;4996347;28;974;-71
2022/11/04 06:42:15;;;;;;;;;;;12.00;91.70;;;;;;5002641;28;2155;-71
2022/11/04 06:44:43;;;;;;;;;;;12.00;91.60;;;;;;5004942;28;1907;-66
2022/11/04 06:47:11;;;;;;;;;;;12.00;92.10;;;;;;5003822;28;1626;-71
2022/11/04 06:49:38;;;;;;;;;;;12.10;91.90;;;;;;4998290;28;2005;-68
2022/11/04 06:52:07;;;;;;;;;;;11.90;91.70;;;;;;5000275;28;1993;-67
2022/11/04 06:54:35;;;;;;;;;;;11.80;91.90;;;;;;5001167;28;1013;-67
2022/11/04 06:57:03;;;;;;;;;;;11.90;92.40;;;;;;5000833;28;1978;-67
2022/11/04 06:59:30;;;;;;;;;;;12.00;92.80;;;;;;4994102;28;3069;-67
2022/11/04 07:01:58;;;;;;;;;;;12.00;92.40;;;;;;5001199;28;1938;-68
2022/11/04 07:04:26;;;;;;;;;;;11.90;92.40;;;;;;4999337;28;1946;-72
2022/11/04 07:06:53;;;;;;;;;;;11.80;91.90;;;;;;5002672;28;2044;-69
2022/11/04 07:09:22;;;;;;;;;;;11.70;92.10;;;;;;4997948;28;1472;-71
2022/11/04 07:11:50;;;;;;;;;;;11.60;92.00;;;;;;5001709;28;1379;-70
2022/11/04 07:14:18;;;;;;;;;;;11.60;92.40;;;;;;5001278;28;1092;-70
2022/11/04 07:16:45;;;;;;;;;;;11.60;92.30;;;;;;5003335;28;2117;-69
2022/11/04 07:19:13;;;;;;;;;;;11.70;92.60;;;;;;5004577;28;2159;-70
2022/11/04 07:21:41;;;;;;;;;;;11.80;92.20;;;;;;4998716;28;1292;-71
2022/11/04 07:24:09;;;;;;;;;;;11.80;92.20;;;;;;5000659;28;1946;-70
2022/11/04 07:26:38;;;;;;;;;;;11.80;92.10;;;;;;5006905;28;2013;-71
2022/11/04 07:29:05;;;;;;;;;;;11.70;92.10;;;;;;5009215;28;1997;-71
2022/11/04 07:31:33;;;;;;;;;;;11.70;92.10;;;;;;5006182;28;1945;-71
2022/11/04 07:34:01;;;;;;;;;;;11.80;92.30;;;;;;5005130;28;1791;-71
2022/11/04 07:36:29;;;;;;;;;;;11.60;92.30;;;;;;5001767;28;1918;-71
2022/11/04 07:38:57;;;;;;;;;;;11.60;92.30;;;;;;5004143;28;1986;-69
2022/11/04 07:41:25;;;;;;;;;;;11.60;92.30;;;;;;5006071;28;1993;-70
2022/11/04 07:43:54;;;;;;;;;;;11.60;92.30;;;;;;5008273;28;1910;-71
2022/11/04 07:46:21;;;;;;;;;;;11.60;92.50;;;;;;5010709;28;1788;-70
2022/11/04 07:48:49;;;;;;;;;;;11.50;92.40;;;;;;5002255;28;1947;-69
2022/11/04 07:51:17;;;;;;;;;;;11.70;92.50;;;;;;5003888;28;1787;-70
2022/11/04 07:53:45;;;;;;;;;;;11.50;92.50;;;;;;5005456;28;1880;-70
2022/11/04 07:56:13;;;;;;;;;;;11.50;92.50;;;;;;5005609;28;1946;-70
2022/11/04 07:58:41;;;;;;;;;;;11.50;92.40;;;;;;5004916;28;2036;-70
2022/11/04 08:01:11;;;;;;;;;;;11.60;92.40;;;;;;5004517;28;1893;-69
2022/11/04 08:03:39;;;;;;;;;;;11.70;92.50;;;;;;5000980;28;1965;-71
2022/11/04 08:06:08;;;;;;;;;;;11.80;92.50;;;;;;5000912;28;2102;-69
2022/11/04 08:08:36;;;;;;;;;;;11.80;92.30;;;;;;4998430;28;1998;-71
2022/11/04 08:11:05;;;;;;;;;;;11.80;92.10;;;;;;5002710;28;1815;-70
2022/11/04 08:13:33;;;;;;;;;;;11.80;92.10;;;;;;5005148;28;2011;-72
2022/11/04 08:16:01;;;;;;;;;;;11.80;91.90;;;;;;5004135;28;1949;-73
2022/11/04 08:18:32;;;;;;;;;;;11.80;92.00;;;;;;5004372;28;1100;-72
2022/11/04 08:21:01;;;;;;;;;;;11.90;92.00;;;;;;4999953;28;1359;-73
2022/11/04 08:23:29;;;;;;;;;;;11.90;91.60;;;;;;5002732;28;1480;-72
2022/11/04 08:25:56;;;;;;;;;;;11.90;91.80;;;;;;5001641;28;1985;-70
2022/11/04 08:28:24;;;;;;;;;;;11.90;91.80;;;;;;5000188;28;1938;-68
2022/11/04 08:30:53;;;;;;;;;;;11.80;91.60;;;;;;5006872;28;1974;-68
2022/11/04 08:33:20;;;;;;;;;;;11.70;91.80;;;;;;5003924;28;2253;-68
2022/11/04 08:35:49;;;;;;;;;;;11.80;91.90;;;;;;4999978;28;1973;-68
2022/11/04 08:38:17;;;;;;;;;;;11.80;91.60;;;;;;5005414;28;2076;-69
2022/11/04 08:40:45;;;;;;;;;;;11.90;91.50;;;;;;5003797;28;1934;-69
2022/11/04 08:43:12;;;;;;;;;;;11.90;91.60;;;;;;4997415;28;2016;-69
2022/11/04 08:45:41;;;;;;;;;;;11.90;91.50;;;;;;5003240;28;1910;-69
2022/11/04 08:48:08;;;;;;;;;;;12.00;91.70;;;;;;5001139;28;2024;-69
2022/11/04 08:50:37;;;;;;;;;;;12.20;92.50;;;;;;5000740;28;2014;-70
2022/11/04 08:53:06;;;;;;;;;;;12.30;92.30;;;;;;5002864;28;2033;-70
2022/11/04 08:55:35;;;;;;;;;;;12.30;91.40;;;;;;4998457;28;930;-70
2022/11/04 08:58:03;;;;;;;;;;;12.30;91.20;;;;;;4999693;28;1981;-70
2022/11/04 09:00:31;;;;;;;;;;;12.30;91.30;;;;;;5004428;28;2029;-70
2022/11/04 09:02:59;;;;;;;;;;;12.30;90.90;;;;;;5001041;28;2012;-70
2022/11/04 09:05:27;;;;;;;;;;;12.30;91.60;;;;;;5001733;28;1962;-69
2022/11/04 09:07:55;;;;;;;;;;;12.40;91.40;;;;;;5004844;28;1040;-70
2022/11/04 09:10:24;;;;;;;;;;;12.50;91.10;;;;;;5004860;28;2009;-69
2022/11/04 09:12:52;;;;;;;;;;;12.50;90.70;;;;;;4999421;28;2133;-69
2022/11/04 09:15:19;;;;;;;;;;;12.50;90.90;;;;;;5000558;28;1879;-69
2022/11/04 09:17:47;;;;;;;;;;;12.60;90.90;;;;;;5000923;28;2010;-70
2022/11/04 09:20:14;;;;;;;;;;;12.50;90.60;;;;;;5001831;28;2001;-69
2022/11/04 09:22:42;;;;;;;;;;;12.50;90.50;;;;;;4999965;28;2017;-70
2022/11/04 09:25:12;;;;;;;;;;;12.70;91.30;;;;;;5001267;28;2161;-70
2022/11/04 09:27:41;;;;;;;;;;;12.80;90.10;;;;;;5000712;28;1056;-70
2022/11/04 09:30:09;;;;;;;;;;;12.90;90.20;;;;;;5001086;28;1102;-69
2022/11/04 09:32:37;;;;;;;;;;;12.90;89.50;;;;;;5004510;28;1276;-70
2022/11/04 09:35:05;;;;;;;;;;;12.80;89.80;;;;;;5013945;28;2056;-69
2022/11/04 09:37:32;;;;;;;;;;;12.90;90.30;;;;;;5015503;28;1093;-70
2022/11/04 09:40:00;;;;;;;;;;;12.80;90.10;;;;;;5000498;28;2032;-69
2022/11/04 09:42:32;;;;;;;;;;;12.80;89.60;;;;;;5002075;28;1403;-69
2022/11/04 09:45:02;;;;;;;;;;;12.90;90.10;;;;;;5001417;28;2197;-69
2022/11/04 09:47:52;;;;;;;;;;;13.00;90.50;;;;;;5001919;28;1890;-71
2022/11/04 09:50:22;;;;;;;;;;;12.90;89.70;;;;;;5000040;28;1981;-69
2022/11/04 09:52:54;;;;;;;;;;;12.90;89.60;;;;;;4997932;28;1406;-70
2022/11/04 09:55:25;;;;;;;;;;;13.00;89.80;;;;;;5001732;28;1029;-71
2022/11/04 09:57:54;;;;;;;;;;;13.10;88.40;;;;;;5003238;28;1054;-69
2022/11/04 10:00:25;;;;;;;;;;;13.10;89.10;;;;;;5003008;28;1171;-71
2022/11/04 10:02:58;;;;;;;;;;;13.30;88.70;;;;;;5006605;28;1413;-70
2022/11/04 10:05:35;;;;;;;;;;;13.40;88.80;;;;;;5003166;28;2019;-69
2022/11/04 10:08:13;;;;;;;;;;;13.50;88.20;;;;;;5004484;28;1810;-70
2022/11/04 10:10:44;;;;;;;;;;;13.40;87.30;;;;;;5002239;28;1396;-70
2022/11/04 10:13:17;;;;;;;;;;;13.40;88.40;;;;;;5001403;28;1168;-72
2022/11/04 10:15:56;;;;;;;;;;;13.40;87.50;;;;;;5005031;28;1104;-70
2022/11/04 10:18:28;;;;;;;;;;;13.40;87.60;;;;;;5004807;28;1153;-70
2022/11/04 10:21:00;;;;;;;;;;;13.30;87.70;;;;;;5002499;28;1283;-72
2022/11/04 10:23:32;;;;;;;;;;;13.30;88.30;;;;;;5004686;28;1763;-70
2022/11/04 10:26:03;;;;;;;;;;;13.20;88.00;;;;;;5005792;28;1922;-70
2022/11/04 10:28:34;;;;;;;;;;;13.00;87.90;;;;;;5004713;28;1116;-70
2022/11/04 10:31:04;;;;;;;;;;;12.70;88.10;;;;;;5005257;28;1405;-70
2022/11/04 10:33:33;;;;;;;;;;;12.90;90.10;;;;;;5003805;28;1285;-70
2022/11/04 10:36:02;;;;;;;;;;;12.90;89.10;;;;;;5005773;28;1096;-71
2022/11/04 10:38:33;;;;;;;;;;;13.00;88.50;;;;;;5004958;28;1799;-70
2022/11/04 10:41:02;;;;;;;;;;;13.00;88.40;;;;;;5002772;28;1838;-69
2022/11/04 10:43:35;;;;;;;;;;;13.00;89.90;;;;;;5001592;28;1803;-72
2022/11/04 10:46:09;;;;;;;;;;;12.90;88.00;;;;;;5000835;28;1979;-72
2022/11/04 10:48:40;;;;;;;;;;;12.80;88.00;;;;;;4997650;28;1875;-73
2022/11/04 10:51:08;;;;;;;;;;;12.70;88.40;;;;;;4998256;28;1938;-73
2022/11/04 10:53:36;;;;;;;;;;;12.70;89.00;;;;;;5002340;28;1965;-72
2022/11/04 10:56:06;;;;;;;;;;;12.80;88.60;;;;;;5006108;28;1085;-71
2022/11/04 10:58:36;;;;;;;;;;;12.90;88.90;;;;;;4997972;28;1029;-67
2022/11/04 11:01:22;;;;;;;;;;;12.80;88.50;;;;;;5008930;28;2078;-72
2022/11/04 11:03:50;;;;;;;;;;;12.90;88.40;;;;;;5005739;28;1985;-69
2022/11/04 11:06:22;;;;;;;;;;;13.20;89.60;;;;;;5005193;28;2001;-70
2022/11/04 11:08:50;;;;;;;;;;;13.30;87.50;;;;;;4999405;28;2013;-68
2022/11/04 11:11:34;;;;;;;;;;;13.10;87.40;;;;;;5003958;28;2032;-68
2022/11/04 11:14:01;;;;;;;;;;;13.10;88.20;;;;;;4999782;28;1097;-69
2022/11/04 11:16:30;;;;;;;;;;;13.30;87.50;;;;;;5001689;28;1089;-68
2022/11/04 11:19:12;;;;;;;;;;;13.40;87.30;;;;;;5005908;28;1054;-69
2022/11/04 11:21:42;;;;;;;;;;;13.40;87.20;;;;;;5004527;28;1365;-68
2022/11/04 11:24:15;;;;;;;;;;;13.50;87.70;;;;;;5004242;28;1302;-69
2022/11/04 11:26:47;;;;;;;;;;;13.60;87.20;;;;;;5002923;28;1942;-68
2022/11/04 11:29:23;;;;;;;;;;;13.80;87.50;;;;;;5006234;28;1097;-69
2022/11/04 11:31:52;;;;;;;;;;;13.70;86.40;;;;;;5000897;28;1305;-68
2022/11/04 11:34:22;;;;;;;;;;;13.80;87.90;;;;;;5007260;28;1010;-69
2022/11/04 11:36:50;;;;;;;;;;;13.90;86.50;;;;;;5004119;28;1552;-70
2022/11/04 11:39:20;;;;;;;;;;;13.80;87.10;;;;;;5004276;28;1060;-69
2022/11/04 11:41:50;;;;;;;;;;;13.90;87.00;;;;;;5009857;28;1579;-68
2022/11/04 11:44:24;;;;;;;;;;;13.90;86.90;;;;;;5020329;28;1372;-68
2022/11/04 11:46:54;;;;;;;;;;;14.10;87.20;;;;;;5005972;28;1981;-68
2022/11/04 11:49:24;;;;;;;;;;;14.20;86.00;;;;;;5002905;28;1093;-68
2022/11/04 11:51:52;;;;;;;;;;;13.80;84.80;;;;;;5007041;28;1366;-68
2022/11/04 11:54:22;;;;;;;;;;;13.60;85.20;;;;;;4997605;28;1037;-68
2022/11/04 11:56:51;;;;;;;;;;;13.80;85.80;;;;;;5004084;28;1073;-67
2022/11/04 11:59:44;;;;;;;;;;;13.90;85.00;;;;;;5006446;28;1481;-68
2022/11/04 12:02:35;;;;;;;;;;;14.00;85.50;;;;;;5005007;28;1776;-67
2022/11/04 12:05:03;;;;;;;;;;;14.20;84.20;;;;;;4996998;28;1085;-68
2022/11/04 12:07:54;;;;;;;;;;;14.20;83.80;;;;;;4999604;28;1969;-68
2022/11/04 12:10:44;;;;;;;;;;;14.10;83.60;;;;;;5003382;28;1503;-68
2022/11/04 12:13:21;;;;;;;;;;;13.90;84.80;;;;;;5000879;28;1034;-67
2022/11/04 12:15:59;;;;;;;;;;;14.00;85.70;;;;;;5001269;28;1057;-67
2022/11/04 12:19:00;;;;;;;;;;;14.00;84.50;;;;;;5004963;28;966;-67
2022/11/04 12:21:33;;;;;;;;;;;14.00;84.20;;;;;;4948774;28;1279;-69
2022/11/04 12:24:05;;;;;;;;;;;14.00;85.10;;;;;;4947461;29;1082;-68
2022/11/04 12:26:36;;;;;;;;;;;14.10;84.80;;;;;;4946780;29;1911;-67
2022/11/04 12:29:14;;;;;;;;;;;13.90;85.10;;;;;;4945751;29;1061;-69
2022/11/04 12:31:47;;;;;;;;;;;14.10;85.20;;;;;;4945471;28;1373;-68
2022/11/04 12:34:20;;;;;;;;;;;14.00;83.80;;;;;;5006038;28;1101;-68
2022/11/04 12:36:59;;;;;;;;;;;14.00;84.50;;;;;;5003921;28;1075;-68
2022/11/04 12:39:39;;;;;;;;;;;14.10;84.00;;;;;;5004645;28;1702;-68
2022/11/04 12:42:14;;;;;;;;;;;14.00;83.50;;;;;;5002569;28;1946;-67
2022/11/04 12:44:58;;;;;;;;;;;14.10;82.70;;;;;;5005479;28;1672;-68
2022/11/04 12:47:30;;;;;;;;;;;13.80;83.20;;;;;;5005696;28;1979;-69
2022/11/04 12:50:11;;;;;;;;;;;14.00;82.80;;;;;;5001733;28;1599;-67
2022/11/04 12:52:50;;;;;;;;;;;13.80;82.80;;;;;;5003180;28;1322;-69
2022/11/04 12:55:23;;;;;;;;;;;13.90;83.40;;;;;;5003653;28;1049;-68
2022/11/04 12:57:55;;;;;;;;;;;13.90;82.90;;;;;;5001003;28;1070;-68
2022/11/04 13:00:26;;;;;;;;;;;13.80;83.20;;;;;;5002878;28;1730;-71
2022/11/04 13:02:57;;;;;;;;;;;13.60;82.90;;;;;;5003920;28;1403;-68
2022/11/04 13:05:34;;;;;;;;;;;13.60;83.00;;;;;;5004582;28;1720;-69
2022/11/04 13:08:07;;;;;;;;;;;13.70;83.10;;;;;;5003337;28;1902;-67
2022/11/04 13:10:42;;;;;;;;;;;13.60;83.20;;;;;;5001605;28;1307;-68
2022/11/04 13:13:11;;;;;;;;;;;13.40;83.60;;;;;;5002858;28;1656;-67
2022/11/04 13:15:43;;;;;;;;;;;13.50;83.50;;;;;;5001425;28;1100;-68
2022/11/04 13:18:14;;;;;;;;;;;13.60;83.50;;;;;;5000413;28;1187;-68
2022/11/04 13:20:43;;;;;;;;;;;13.50;83.80;;;;;;4998676;28;1279;-67
2022/11/04 13:23:17;;;;;;;;;;;13.40;84.20;;;;;;5002998;28;994;-68
2022/11/04 13:25:46;;;;;;;;;;;13.60;84.30;;;;;;5001046;28;1684;-68
2022/11/04 13:28:16;;;;;;;;;;;13.50;83.70;;;;;;5002828;28;1991;-67
2022/11/04 13:30:47;;;;;;;;;;;13.60;83.60;;;;;;4996267;28;1755;-68
2022/11/04 13:33:18;;;;;;;;;;;13.70;83.40;;;;;;4998664;28;1018;-67
2022/11/04 13:35:49;;;;;;;;;;;13.80;82.40;;;;;;5004412;28;1121;-67
2022/11/04 13:38:20;;;;;;;;;;;13.70;82.90;;;;;;5001469;28;1168;-67
2022/11/04 13:40:52;;;;;;;;;;;13.60;82.70;;;;;;5004523;28;1369;-67
2022/11/04 13:43:41;;;;;;;;;;;13.60;83.00;;;;;;5002159;28;1072;-67
2022/11/04 13:46:22;;;;;;;;;;;13.60;83.40;;;;;;5004622;28;1172;-66
2022/11/04 13:48:57;;;;;;;;;;;13.70;82.90;;;;;;5003965;28;1442;-68
2022/11/04 13:51:33;;;;;;;;;;;13.60;81.90;;;;;;5018296;28;1814;-67
2022/11/04 13:54:03;;;;;;;;;;;13.60;81.90;;;;;;5006547;28;1064;-68
2022/11/04 13:56:32;;;;;;;;;;;13.60;82.50;;;;;;5003090;28;1724;-66
2022/11/04 13:59:07;;;;;;;;;;;13.50;81.80;;;;;;5001998;28;1001;-68
2022/11/04 14:01:36;;;;;;;;;;;13.70;82.10;;;;;;5001129;28;1739;-68
2022/11/04 14:04:19;;;;;;;;;;;13.40;81.90;;;;;;5001599;28;1614;-68
2022/11/04 14:06:52;;;;;;;;;;;13.70;81.90;;;;;;5001460;28;1977;-64
2022/11/04 14:09:31;;;;;;;;;;;13.70;82.10;;;;;;4998498;28;1732;-64
2022/11/04 14:12:23;;;;;;;;;;;13.80;82.80;;;;;;5000272;28;1723;-64
2022/11/04 14:14:51;;;;;;;;;;;13.60;82.20;;;;;;4990051;28;1994;-64
2022/11/04 14:17:37;;;;;;;;;;;13.60;82.20;;;;;;5001539;28;1149;-65
2022/11/04 14:20:10;;;;;;;;;;;13.40;82.10;;;;;;5003331;28;1266;-64
2022/11/04 14:22:47;;;;;;;;;;;13.50;83.30;;;;;;5000027;28;1680;-64
2022/11/04 14:25:20;;;;;;;;;;;13.50;83.10;;;;;;4997405;28;1747;-64
2022/11/04 14:27:49;;;;;;;;;;;13.40;83.10;;;;;;5001835;28;1903;-63
2022/11/04 14:30:30;;;;;;;;;;;13.30;83.30;;;;;;5000749;28;1530;-64
2022/11/04 14:32:59;;;;;;;;;;;13.40;83.30;;;;;;4996890;28;1265;-65
2022/11/04 14:35:27;;;;;;;;;;;13.40;83.30;;;;;;4995044;28;1006;-65
2022/11/04 14:37:55;;;;;;;;;;;13.40;83.40;;;;;;4996490;28;1002;-64
2022/11/04 14:40:26;;;;;;;;;;;13.40;83.30;;;;;;5000241;28;1282;-64
2022/11/04 14:42:55;;;;;;;;;;;13.40;84.10;;;;;;5005230;28;1683;-66
2022/11/04 14:45:24;;;;;;;;;;;13.30;85.40;;;;;;5000936;28;1539;-65
2022/11/04 14:47:54;;;;;;;;;;;13.10;87.50;;;;;;5005352;28;1914;-64
2022/11/04 14:50:23;;;;;;;;;;;13.10;86.80;;;;;;5000186;28;1452;-66
2022/11/04 14:52:54;;;;;;;;;;;13.00;87.90;;;;;;5001422;28;1847;-64
2022/11/04 14:55:23;;;;;;;;;;;12.80;88.50;;;;;;4997034;28;1070;-64
2022/11/04 14:57:53;;;;;;;;;;;12.90;89.00;;;;;;4997180;28;993;-66
2022/11/04 15:00:42;;;;;;;;;;;12.70;89.00;;;;;;5004283;28;1121;-65
2022/11/04 15:03:14;;;;;;;;;;;12.70;88.20;;;;;;5001450;28;1522;-65
2022/11/04 15:06:03;;;;;;;;;;;12.70;87.70;;;;;;5001763;28;1692;-65
2022/11/04 15:08:32;;;;;;;;;;;12.70;87.30;;;;;;5002634;28;1914;-66
2022/11/04 15:11:05;;;;;;;;;;;12.70;87.30;;;;;;4994598;28;1262;-65
2022/11/04 15:13:34;;;;;;;;;;;12.50;87.10;;;;;;4999096;28;1691;-65
2022/11/04 15:16:05;;;;;;;;;;;12.50;87.50;;;;;;5003205;28;1182;-66
2022/11/04 15:18:33;;;;;;;;;;;12.30;87.60;;;;;;5001304;28;1493;-65
2022/11/04 15:21:03;;;;;;;;;;;12.20;88.00;;;;;;5002677;28;1354;-65
2022/11/04 15:23:31;;;;;;;;;;;12.40;88.50;;;;;;5003547;28;1152;-65
2022/11/04 15:25:59;;;;;;;;;;;12.20;88.00;;;;;;5003416;28;1081;-65
2022/11/04 15:28:28;;;;;;;;;;;12.00;89.30;;;;;;5002787;28;1997;-65